createdAt,value
2019-02-05T00:01:36.593Z,95.00
2019-02-05T00:08:03.822Z,95.10
2019-02-05T00:10:42.165Z,95.10
2019-02-05T00:13:14.801Z,95.10
2019-02-05T00:15:56.145Z,95.10
2019-02-05T00:22:26.885Z,95.10
2019-02-05T00:25:13.183Z,95.10
2019-02-05T00:28:28.838Z,95.10
2019-02-05T00:31:06.735Z,95.20
2019-02-05T00:34:05.881Z,95.20
2019-02-05T00:36:42.727Z,95.20
2019-02-05T00:39:16.003Z,95.20
2019-02-05T00:41:56.447Z,95.20
2019-02-05T00:44:36.547Z,95.30
2019-02-05T00:47:10.933Z,95.30
2019-02-05T00:49:48.457Z,95.30
2019-02-05T00:56:17.285Z,95.40
2019-02-05T00:59:00.277Z,95.30
2019-02-05T01:04:28.011Z,95.30
2019-02-05T01:07:23.985Z,95.40
2019-02-05T01:13:47.184Z,95.60
2019-02-05T01:16:28.370Z,95.50
2019-02-05T01:23:04.471Z,95.60
2019-02-05T01:25:43.192Z,95.60
2019-02-05T01:28:56.123Z,95.70
2019-02-05T01:31:41.384Z,95.70
2019-02-05T01:35:46.699Z,95.70
2019-02-05T01:37:41.206Z,95.70
2019-02-05T01:40:19.402Z,95.80
2019-02-05T01:42:50.916Z,95.90
2019-02-05T01:49:23.341Z,96.00
2019-02-05T01:58:43.143Z,95.90
2019-02-05T02:01:36.460Z,95.90
2019-02-05T02:04:10.749Z,96.00
2019-02-05T02:07:02.606Z,96.10
2019-02-05T02:09:43.903Z,96.10
2019-02-05T02:12:13.632Z,96.10
2019-02-05T02:14:49.420Z,96.20
2019-02-05T02:17:26.507Z,96.20
2019-02-05T02:24:17.862Z,96.30
2019-02-05T02:27:07.603Z,96.30
2019-02-05T02:29:45.842Z,96.40
2019-02-05T02:36:27.221Z,96.40
2019-02-05T03:10:19.756Z,96.70
2019-02-05T04:31:16.396Z,97.50
2019-02-05T05:29:43.944Z,98.50
2019-02-05T05:32:13.786Z,98.50
2019-02-05T05:34:43.371Z,98.50
2019-02-05T05:37:11.422Z,98.40
2019-02-05T05:39:41.442Z,98.30
2019-02-05T05:42:16.530Z,98.30
2019-02-05T05:44:46.205Z,98.30
2019-02-05T05:54:54.796Z,98.30
2019-02-05T05:57:26.993Z,98.50
2019-02-05T06:00:01.480Z,98.40
2019-02-05T06:02:31.101Z,98.40
2019-02-05T06:08:36.032Z,98.30
2019-02-05T06:11:23.839Z,98.30
2019-02-05T06:14:02.577Z,98.30
2019-02-05T06:16:35.551Z,98.30
2019-02-05T06:19:07.720Z,98.20
2019-02-05T06:21:37.057Z,98.20
2019-02-05T06:24:09.350Z,98.10
2019-02-05T06:26:45.369Z,98.10
2019-02-05T06:29:16.717Z,98.10
2019-02-05T06:37:17.707Z,98.20
2019-02-05T06:39:18.492Z,98.10
2019-02-05T06:41:48.041Z,98.20
2019-02-05T06:44:19.046Z,98.20
2019-02-05T06:46:56.072Z,98.20
2019-02-05T06:49:26.129Z,98.20
2019-02-05T06:52:17.796Z,98.20
2019-02-05T06:54:47.165Z,98.20
2019-02-05T06:57:16.458Z,98.20
2019-02-05T07:00:42.915Z,98.20
2019-02-05T07:03:15.115Z,98.20
2019-02-05T07:05:56.213Z,98.20
2019-02-05T07:08:26.105Z,98.10
2019-02-05T07:10:55.397Z,98.20
2019-02-05T07:13:43.080Z,98.20
2019-02-05T07:19:53.824Z,98.20
2019-02-05T07:22:23.200Z,98.20
2019-02-05T07:24:53.133Z,98.20
2019-02-05T07:27:23.232Z,98.20
2019-02-05T07:29:52.882Z,98.20
2019-02-05T07:32:22.349Z,98.20
2019-02-05T07:34:52.089Z,98.20
2019-02-05T07:37:25.609Z,98.20
2019-02-05T07:39:55.139Z,98.30
2019-02-05T07:42:24.555Z,98.20
2019-02-05T07:44:54.017Z,98.30
2019-02-05T07:47:56.012Z,98.30
2019-02-05T07:50:26.321Z,98.30
2019-02-05T07:52:55.920Z,98.30
2019-02-05T07:55:25.511Z,98.30
2019-02-05T07:57:54.768Z,98.30
2019-02-05T08:00:25.933Z,98.30
2019-02-05T08:02:55.611Z,98.40
2019-02-05T08:05:28.331Z,98.30
2019-02-05T08:08:19.248Z,98.40
2019-02-05T08:10:48.392Z,98.40
2019-02-05T08:13:18.112Z,98.30
2019-02-05T08:15:47.522Z,98.40
2019-02-05T08:18:22.100Z,98.40
2019-02-05T08:21:00.639Z,98.40
2019-02-05T08:23:30.076Z,98.40
2019-02-05T08:25:59.317Z,98.40
2019-02-05T08:28:28.395Z,98.40
2019-02-05T08:30:57.355Z,98.40
2019-02-05T08:33:27.396Z,98.50
2019-02-05T08:35:56.439Z,98.50
2019-02-05T08:38:26.039Z,98.40
2019-02-05T08:41:09.310Z,98.40
2019-02-05T08:43:43.415Z,98.50
2019-02-05T08:46:14.367Z,98.50
2019-02-05T08:48:44.398Z,98.40
2019-02-05T08:51:17.928Z,98.40
2019-02-05T08:53:47.418Z,98.40
2019-02-05T08:56:17.069Z,98.50
2019-02-05T08:58:46.434Z,98.50
2019-02-05T09:01:20.353Z,98.50
2019-02-05T09:03:50.407Z,98.50
2019-02-05T09:06:41.944Z,98.40
2019-02-05T09:09:14.710Z,98.40
2019-02-05T09:11:44.037Z,98.40
2019-02-05T09:14:13.452Z,98.50
2019-02-05T09:16:43.263Z,98.40
2019-02-05T09:19:12.550Z,98.40
2019-02-05T09:21:41.782Z,98.40
2019-02-05T09:24:11.453Z,98.40
2019-02-05T09:26:40.590Z,98.30
2019-02-05T09:29:40.372Z,98.50
2019-02-05T09:32:09.707Z,98.50
2019-02-05T09:34:40.858Z,98.50
2019-02-05T09:37:09.993Z,98.50
2019-02-05T09:39:39.112Z,98.50
2019-02-05T09:42:08.493Z,98.40
2019-02-05T09:44:37.667Z,98.50
2019-02-05T09:47:06.702Z,98.50
2019-02-05T09:49:35.841Z,98.50
2019-02-05T09:52:05.317Z,98.50
2019-02-05T09:54:34.483Z,98.50
2019-02-05T09:57:03.582Z,98.50
2019-02-05T09:59:44.879Z,98.60
2019-02-05T10:02:04.369Z,98.50
2019-02-05T10:04:33.419Z,98.50
2019-02-05T10:07:02.447Z,98.50
2019-02-05T10:09:31.653Z,98.60
2019-02-05T10:12:00.932Z,98.60
2019-02-05T10:14:30.681Z,98.60
2019-02-05T10:16:59.738Z,98.60
2019-02-05T10:19:29.099Z,98.60
2019-02-05T10:21:58.559Z,98.60
2019-02-05T10:24:27.883Z,98.60
2019-02-05T10:27:04.983Z,98.50
2019-02-05T10:29:34.619Z,98.50
2019-02-05T10:32:05.521Z,98.50
2019-02-05T10:34:34.587Z,98.60
2019-02-05T10:37:04.014Z,98.60
2019-02-05T10:39:33.492Z,98.60
2019-02-05T10:42:02.849Z,98.60
2019-02-05T10:44:32.164Z,98.60
2019-02-05T10:47:56.167Z,98.90
2019-02-05T10:50:25.717Z,98.70
2019-02-05T10:52:58.040Z,98.70
2019-02-05T10:55:27.494Z,98.70
2019-02-05T10:57:56.623Z,98.70
2019-02-05T11:00:27.996Z,98.60
2019-02-05T11:03:07.737Z,98.60
2019-02-05T11:05:37.788Z,98.60
2019-02-05T11:08:10.316Z,98.60
2019-02-05T11:10:39.438Z,98.60
2019-02-05T11:13:08.719Z,98.70
2019-02-05T11:15:51.945Z,98.70
2019-02-05T11:18:20.933Z,98.80
2019-02-05T11:20:50.498Z,98.70
2019-02-05T11:23:43.880Z,98.70
2019-02-05T11:26:13.230Z,98.70
2019-02-05T11:28:42.418Z,98.70
2019-02-05T11:31:11.853Z,98.70
2019-02-05T11:33:40.999Z,98.70
2019-02-05T11:36:26.252Z,98.70
2019-02-05T11:38:55.242Z,98.80
2019-02-05T11:41:24.321Z,98.80
2019-02-05T11:44:11.741Z,98.80
2019-02-05T11:46:40.719Z,98.80
2019-02-05T11:49:10.672Z,98.80
2019-02-05T11:51:39.957Z,98.80
2019-02-05T11:54:09.399Z,99.10
2019-02-05T11:56:38.947Z,98.80
2019-02-05T11:59:08.054Z,98.80
2019-02-05T12:01:39.287Z,98.80
2019-02-05T12:04:08.087Z,98.80
2019-02-05T12:06:37.293Z,98.80
2019-02-05T12:09:19.119Z,98.80
2019-02-05T12:11:48.396Z,98.80
2019-02-05T12:16:53.661Z,98.80
2019-02-05T12:19:22.752Z,98.80
2019-02-05T12:22:02.237Z,98.80
2019-02-05T12:24:31.356Z,98.80
2019-02-05T12:27:00.277Z,98.80
2019-02-05T12:29:29.698Z,98.80
2019-02-05T12:31:58.845Z,98.80
2019-02-05T12:34:28.035Z,98.80
2019-02-05T12:37:00.166Z,98.80
2019-02-05T12:39:29.246Z,98.70
2019-02-05T12:42:00.631Z,98.80
2019-02-05T12:44:29.934Z,98.80
2019-02-05T12:46:59.224Z,98.80
2019-02-05T12:49:30.302Z,98.70
2019-02-05T12:51:59.562Z,98.70
2019-02-05T12:54:28.834Z,98.70
2019-02-05T12:56:58.009Z,98.70
2019-02-05T12:59:27.054Z,98.70
2019-02-05T13:01:56.340Z,98.70
2019-02-05T13:04:25.657Z,98.80
2019-02-05T13:06:55.030Z,98.90
2019-02-05T13:09:24.225Z,98.80
2019-02-05T13:11:53.299Z,98.80
2019-02-05T13:14:22.242Z,98.80
2019-02-05T13:16:51.950Z,98.80
2019-02-05T13:19:27.422Z,98.80
2019-02-05T13:24:31.674Z,98.90
2019-02-05T13:27:00.986Z,99.20
2019-02-05T13:29:29.882Z,98.90
2019-02-05T13:34:33.396Z,98.90
2019-02-05T13:37:02.362Z,98.90
2019-02-05T13:39:31.617Z,98.90
2019-02-05T13:42:01.650Z,98.90
2019-02-05T13:44:30.454Z,98.90
2019-02-05T13:46:59.954Z,98.80
2019-02-05T13:50:03.552Z,98.80
2019-02-05T13:52:32.668Z,98.80
2019-02-05T13:55:02.069Z,98.90
2019-02-05T13:57:31.367Z,98.80
2019-02-05T14:00:00.481Z,98.80
2019-02-05T14:02:29.649Z,98.80
2019-02-05T14:04:58.567Z,98.90
2019-02-05T14:07:27.673Z,98.90
2019-02-05T14:10:03.355Z,99.20
2019-02-05T14:12:33.415Z,98.90
2019-02-05T14:15:02.420Z,98.90
2019-02-05T14:17:31.793Z,98.90
2019-02-05T14:20:03.334Z,98.90
2019-02-05T14:22:32.535Z,98.90
2019-02-05T14:25:01.860Z,99.00
2019-02-05T14:27:32.530Z,98.90
2019-02-05T14:30:18.627Z,98.90
2019-02-05T14:32:48.888Z,99.20
2019-02-05T14:35:18.443Z,98.90
2019-02-05T14:37:47.517Z,98.90
2019-02-05T14:40:34.626Z,99.00
2019-02-05T14:43:03.958Z,99.00
2019-02-05T14:45:40.085Z,99.00
2019-02-05T14:48:09.954Z,99.00
2019-02-05T14:50:42.133Z,99.00
2019-02-05T14:53:12.083Z,99.00
2019-02-05T14:55:41.828Z,99.00
2019-02-05T14:58:38.421Z,99.10
2019-02-05T15:01:08.469Z,99.10
2019-02-05T15:03:37.998Z,99.10
2019-02-05T15:06:15.708Z,99.10
2019-02-05T15:08:50.810Z,99.10
2019-02-05T15:11:22.038Z,99.00
2019-02-05T15:13:52.617Z,99.00
2019-02-05T15:16:22.318Z,99.00
2019-02-05T15:22:54.211Z,98.90
2019-02-05T15:27:58.722Z,99.00
2019-02-05T15:30:36.335Z,99.00
2019-02-05T15:33:25.095Z,99.10
2019-02-05T15:35:57.246Z,99.00
2019-02-05T15:38:26.279Z,99.00
2019-02-05T15:40:55.503Z,99.00
2019-02-05T15:43:24.776Z,99.00
2019-02-05T15:46:02.163Z,99.00
2019-02-05T15:48:31.015Z,99.10
2019-02-05T15:51:00.047Z,99.10
2019-02-05T15:53:29.324Z,99.00
2019-02-05T15:55:58.450Z,99.00
2019-02-05T15:58:30.113Z,99.10
2019-02-05T16:00:59.412Z,99.10
2019-02-05T16:03:28.679Z,99.10
2019-02-05T16:06:05.440Z,99.10
2019-02-05T16:08:34.941Z,99.10
2019-02-05T16:11:04.476Z,99.10
2019-02-05T16:13:34.060Z,99.10
2019-02-05T16:16:04.823Z,99.10
2019-02-05T16:18:33.830Z,99.10
2019-02-05T16:21:06.527Z,99.10
2019-02-05T16:23:39.441Z,99.10
2019-02-05T16:26:08.561Z,99.10
2019-02-05T16:28:40.086Z,99.20
2019-02-05T16:31:09.278Z,99.20
2019-02-05T16:33:57.508Z,99.20
2019-02-05T16:36:26.710Z,99.10
2019-02-05T16:38:55.756Z,99.20
2019-02-05T16:41:24.798Z,99.20
2019-02-05T16:43:53.864Z,99.10
2019-02-05T16:46:23.255Z,99.20
2019-02-05T16:48:55.578Z,99.20
2019-02-05T16:51:24.917Z,99.20
2019-02-05T16:53:54.172Z,99.20
2019-02-05T16:56:23.868Z,99.20
2019-02-05T16:59:11.360Z,99.30
2019-02-05T17:01:40.427Z,99.50
2019-02-05T17:04:09.740Z,99.30
2019-02-05T17:06:38.818Z,99.30
2019-02-05T17:09:14.965Z,99.30
2019-02-05T17:11:45.558Z,99.40
2019-02-05T17:14:14.857Z,99.40
2019-02-05T17:16:44.177Z,99.40
2019-02-05T17:19:15.293Z,99.40
2019-02-05T17:21:44.457Z,99.40
2019-02-05T17:24:13.883Z,99.40
2019-02-05T17:26:42.960Z,99.20
2019-02-05T17:29:12.050Z,99.40
2019-02-05T17:31:41.176Z,99.40
2019-02-05T17:34:10.674Z,99.40
2019-02-05T17:36:40.036Z,99.30
2019-02-05T17:39:12.352Z,99.30
2019-02-05T17:41:41.446Z,99.40
2019-02-05T17:44:10.983Z,99.40
2019-02-05T17:46:40.480Z,99.40
2019-02-05T17:49:12.165Z,99.40
2019-02-05T17:51:41.217Z,99.40
2019-02-05T17:54:10.644Z,99.40
2019-02-05T17:56:39.750Z,99.40
2019-02-05T17:59:09.059Z,99.40
2019-02-05T18:01:40.205Z,99.40
2019-02-05T18:04:09.155Z,99.50
2019-02-05T18:06:40.143Z,99.50
2019-02-05T18:09:10.538Z,99.50
2019-02-05T18:13:06.048Z,99.40
2019-02-05T18:16:01.568Z,99.50
2019-02-05T18:18:45.005Z,99.50
2019-02-05T18:21:58.072Z,99.40
2019-02-05T18:24:41.235Z,99.40
2019-02-05T18:27:52.960Z,99.50
2019-02-05T18:30:27.502Z,99.40
2019-02-05T18:33:04.355Z,99.40
2019-02-05T18:35:27.965Z,99.30
2019-02-05T18:37:57.728Z,99.40
2019-02-05T18:40:27.040Z,99.40
2019-02-05T18:43:04.268Z,99.40
2019-02-05T18:45:33.491Z,99.40
2019-02-05T18:48:02.925Z,99.40
2019-02-05T18:50:32.219Z,99.40
2019-02-05T18:53:02.718Z,99.40
2019-02-05T18:55:32.421Z,99.50
2019-02-05T18:58:08.907Z,99.40
2019-02-05T19:00:34.870Z,99.40
2019-02-05T19:03:14.939Z,99.40
2019-02-05T19:05:42.204Z,99.30
2019-02-05T19:08:11.459Z,99.40
2019-02-05T19:10:40.694Z,99.40
2019-02-05T19:13:10.004Z,99.40
2019-02-05T19:15:39.628Z,99.40
2019-02-05T19:18:09.705Z,99.50
2019-02-05T19:24:47.823Z,99.60
2019-02-05T19:31:01.379Z,99.60
2019-02-05T19:33:30.691Z,99.50
2019-02-05T19:36:01.028Z,99.50
2019-02-05T19:38:31.735Z,99.50
2019-02-05T19:41:01.909Z,99.50
2019-02-05T19:43:31.397Z,99.50
2019-02-05T19:46:15.403Z,99.50
2019-02-05T19:49:21.443Z,99.50
2019-02-05T19:51:43.654Z,99.50
2019-02-05T19:54:13.189Z,99.50
2019-02-05T19:57:17.052Z,99.50
2019-02-05T19:59:46.530Z,99.50
2019-02-05T20:02:16.243Z,99.50
2019-02-05T20:04:45.432Z,99.50
2019-02-05T20:07:17.264Z,99.50
2019-02-05T20:13:27.686Z,99.60
2019-02-05T20:15:57.136Z,99.60
2019-02-05T20:18:56.645Z,99.60
2019-02-05T20:21:25.981Z,99.60
2019-02-05T20:23:55.071Z,99.50
2019-02-05T20:30:07.273Z,99.50
2019-02-05T20:32:36.391Z,99.50
2019-02-05T20:35:06.306Z,99.40
2019-02-05T20:37:40.799Z,99.40
2019-02-05T20:40:13.066Z,99.50
2019-02-05T20:42:42.735Z,99.40
2019-02-05T20:45:12.315Z,99.40
2019-02-05T20:47:41.716Z,99.50
2019-02-05T20:52:47.349Z,99.40
2019-02-05T20:55:25.119Z,99.40
2019-02-05T20:57:54.657Z,99.40
2019-02-05T21:00:23.897Z,99.40
2019-02-05T21:02:53.328Z,99.50
2019-02-05T21:05:22.750Z,99.50
2019-02-05T21:07:52.480Z,99.40
2019-02-05T21:10:22.784Z,99.40
2019-02-05T21:13:05.141Z,99.40
2019-02-05T21:15:35.115Z,99.70
2019-02-05T21:18:04.652Z,99.40
2019-02-05T21:20:34.113Z,99.40
2019-02-05T21:23:03.829Z,99.40
2019-02-05T21:25:35.304Z,99.50
2019-02-05T21:28:04.860Z,99.40
2019-02-05T21:30:33.978Z,99.40
2019-02-05T21:33:03.191Z,99.40
2019-02-05T21:35:32.493Z,99.50
2019-02-05T21:38:01.873Z,99.50
2019-02-05T21:40:31.730Z,99.50
2019-02-05T21:43:24.379Z,99.50
2019-02-05T21:45:53.579Z,99.50
2019-02-05T21:48:22.861Z,99.50
2019-02-05T21:50:52.117Z,99.60
2019-02-05T21:53:21.272Z,99.60
2019-02-05T21:55:50.663Z,99.60
2019-02-05T21:58:20.149Z,99.60
2019-02-05T22:00:49.377Z,99.60
2019-02-05T22:03:20.310Z,99.60
2019-02-05T22:05:49.905Z,99.60
2019-02-05T22:08:19.138Z,99.60
2019-02-05T22:10:48.469Z,99.60
2019-02-05T22:13:17.938Z,99.70
2019-02-05T22:18:33.433Z,99.80
2019-02-05T22:21:05.194Z,99.70
2019-02-05T22:23:34.840Z,99.70
2019-02-05T22:26:04.648Z,99.60
2019-02-05T22:28:33.886Z,99.50
2019-02-05T22:31:03.097Z,99.60
2019-02-05T22:33:32.564Z,99.60
2019-02-05T22:36:02.033Z,99.60
2019-02-05T22:38:31.301Z,99.70
2019-02-05T22:41:00.544Z,99.70
2019-02-05T22:43:29.773Z,99.70
2019-02-05T22:45:59.570Z,99.70
2019-02-05T22:48:29.231Z,99.80
2019-02-05T22:51:10.573Z,99.80
2019-02-05T22:53:39.690Z,99.80
2019-02-05T22:56:08.966Z,99.80
2019-02-05T22:58:38.201Z,99.80
2019-02-05T23:01:42.206Z,99.90
2019-02-05T23:04:17.786Z,99.70
2019-02-05T23:06:57.135Z,99.70
2019-02-05T23:09:40.146Z,99.70
2019-02-05T23:12:14.285Z,99.80
2019-02-05T23:14:57.575Z,99.70
2019-02-05T23:17:26.718Z,99.70
2019-02-05T23:19:55.817Z,99.70
2019-02-05T23:22:24.959Z,99.60
2019-02-05T23:25:00.333Z,99.60
2019-02-05T23:27:29.767Z,99.70
2019-02-05T23:29:58.918Z,99.60
2019-02-05T23:32:28.087Z,99.50
2019-02-05T23:35:02.241Z,99.50
2019-02-05T23:37:28.129Z,99.90
2019-02-05T23:39:57.348Z,99.60
2019-02-05T23:42:26.582Z,99.70
2019-02-05T23:44:55.771Z,99.60
2019-02-05T23:47:25.131Z,99.50
2019-02-05T23:50:02.503Z,99.50
2019-02-05T23:52:31.676Z,99.50
2019-02-05T23:55:01.221Z,99.50
2019-02-05T23:57:30.447Z,99.50
